Justo Sierra — XCSN — position and weather

sailwx.info

Track history (hours):
 
Tides and Currents Weather Stations Pressure Air Temp Water Temp Dewpoint Dewpoint Depression Visibility Wind Speed Wind Dir Waves Ship Positions

Oceanographic research ship Justo Sierra (Mexico)

Detailed information on ship capabilities available from University of Delaware's Ocean Information Center.

Last reported at 2018-Dec-03 07:34 UTC. Time now 2018-Dec-13 00:04 UTC.
Position N 19°43' W 095°49'.
Warning: this ship's position is 9 days out of date.

Length 30 m.

MMSI: 345030040.

Date/timePositionNaut miles runAvg speedWind from/ knotsBaromVisibWave heightAir tempDewpointWater temp
2018-Dec-03 07:34N 19°43' W 095°49'610.0
2018-Dec-03 06:58N 19°38' W 095°44'510.1
2018-Dec-03 06:29N 19°35' W 095°41'510.1
2018-Dec-03 05:57N 19°31' W 095°37'610.1
2018-Dec-03 05:21N 19°26' W 095°32'410.5
2018-Dec-03 05:01N 19°24' W 095°30'1210.4
2018-Dec-03 03:52N 19°15' W 095°21'710.5
2018-Dec-03 03:13N 19°11' W 095°16'210.5
2018-Dec-03 03:00N 19°09' W 095°14'510.6
2018-Dec-03 02:30N 19°05' W 095°10'510.6
2018-Dec-03 02:00N 19°02' W 095°06'510.5
2018-Dec-03 01:30N 18°59' W 095°01'710.3
2018-Dec-03 00:52N 18°56' W 094°55'1110.1
2018-Dec-02 23:49N 18°50' W 094°46'310.1
2018-Dec-02 23:31N 18°48' W 094°43'  
2018-Nov-30 11:54N 19°31' W 095°08'0 0.5
2018-Nov-30 11:21N 19°31' W 095°08'  
2018-Nov-28 04:09N 19°08' W 095°42'1 8.1
2018-Nov-28 04:00N 19°07' W 095°42'4 8.0
2018-Nov-28 03:30N 19°05' W 095°46'4 8.5
2018-Nov-28 03:00N 19°02' W 095°49'510.3
2018-Nov-28 02:31N 19°02' W 095°55'4 7.9
2018-Nov-28 02:00N 19°04' W 095°58'0 0.2
2018-Nov-28 01:30N 19°04' W 095°58'0 0.0
2018-Nov-28 01:00N 19°04' W 095°58'0 0.0
2018-Nov-28 00:31N 19°04' W 095°58'0 0.0
2018-Nov-28 00:00N 19°04' W 095°58'0 0.0
2018-Nov-27 23:31N 19°04' W 095°58'0 0.0
2018-Nov-27 23:00N 19°04' W 095°58'0 0.0
2018-Nov-27 22:31N 19°04' W 095°58'0 0.0
2018-Nov-27 22:00N 19°04' W 095°58'0 0.0
2018-Nov-27 21:30N 19°04' W 095°58'0 0.0
2018-Nov-27 21:00N 19°04' W 095°58'0 0.0
2018-Nov-27 20:31N 19°04' W 095°58'0 0.0
2018-Nov-27 20:01N 19°04' W 095°58'0 0.0
2018-Nov-27 19:31N 19°04' W 095°58'0 0.0
2018-Nov-27 19:00N 19°04' W 095°58'0 0.0
2018-Nov-27 18:31N 19°04' W 095°58'0 0.0
2018-Nov-27 18:00N 19°04' W 095°58'0 0.0
2018-Nov-27 17:31N 19°04' W 095°58'0 0.0
2018-Nov-27 17:00N 19°04' W 095°58'0 0.0
2018-Nov-27 16:31N 19°04' W 095°58'0 0.0
2018-Nov-27 16:00N 19°04' W 095°58'0 0.0
2018-Nov-27 15:31N 19°04' W 095°58'0 0.0
2018-Nov-27 15:01N 19°04' W 095°58'0 0.1
2018-Nov-27 14:31N 19°04' W 095°58'0 0.0
2018-Nov-27 14:00N 19°04' W 095°58'0 0.0
2018-Nov-27 13:31N 19°04' W 095°58'0 0.0
2018-Nov-27 13:01N 19°04' W 095°58'0 0.0
2018-Nov-27 12:31N 19°04' W 095°58'0 0.0
2018-Nov-27 12:00N 19°04' W 095°58'0 0.0
2018-Nov-27 11:30N 19°04' W 095°58'0 0.0
2018-Nov-27 11:00N 19°04' W 095°58'0 0.0
2018-Nov-27 10:30N 19°04' W 095°58'0 0.0
2018-Nov-27 10:00N 19°04' W 095°58'0 0.0
2018-Nov-27 09:30N 19°04' W 095°58'0 0.0
2018-Nov-27 09:00N 19°04' W 095°58'0 0.0
2018-Nov-27 08:30N 19°04' W 095°58'0 0.0
2018-Nov-27 08:01N 19°04' W 095°58'0 0.0
2018-Nov-27 07:31N 19°04' W 095°58'0 0.0
2018-Nov-27 07:01N 19°04' W 095°58'0 0.0
2018-Nov-27 06:30N 19°04' W 095°58'0 0.0
2018-Nov-27 06:00N 19°04' W 095°58'0 0.0
2018-Nov-27 05:31N 19°04' W 095°58'0 0.0
2018-Nov-27 05:00N 19°04' W 095°58'0 0.0
2018-Nov-27 04:30N 19°04' W 095°58'0 0.0
2018-Nov-27 04:00N 19°04' W 095°58'0 0.0
2018-Nov-27 03:23N 19°04' W 095°58'0 0.0
2018-Nov-27 02:30N 19°04' W 095°58'0 0.0
2018-Nov-27 02:01N 19°04' W 095°58'0 0.0
2018-Nov-27 01:30N 19°04' W 095°58'0 0.0
2018-Nov-27 01:00N 19°04' W 095°58'0 0.0
2018-Nov-27 00:30N 19°04' W 095°58'  
Track history (hours):
 
Tides and Currents Weather Stations Pressure Air Temp Water Temp Dewpoint Dewpoint Depression Visibility Wind Speed Wind Dir Waves Ship Positions

Oceanographic research ship Justo Sierra (Mexico)

Detailed information on ship capabilities available from University of Delaware's Ocean Information Center.

Last reported at 2018-Dec-03 07:34 UTC. Time now 2018-Dec-13 00:04 UTC.
Position N 19°43' W 095°49'.
Warning: this ship's position is 9 days out of date.

Length 30 m.

MMSI: 345030040.

Date/timePositionNaut miles runAvg speedWind from/ knotsBaromVisibWave heightAir tempDewpointWater temp
2018-Dec-03 07:34N 19°43' W 095°49'610.0
2018-Dec-03 06:58N 19°38' W 095°44'510.1
2018-Dec-03 06:29N 19°35' W 095°41'510.1
2018-Dec-03 05:57N 19°31' W 095°37'610.1
2018-Dec-03 05:21N 19°26' W 095°32'410.5
2018-Dec-03 05:01N 19°24' W 095°30'1210.4
2018-Dec-03 03:52N 19°15' W 095°21'710.5
2018-Dec-03 03:13N 19°11' W 095°16'210.5
2018-Dec-03 03:00N 19°09' W 095°14'510.6
2018-Dec-03 02:30N 19°05' W 095°10'510.6
2018-Dec-03 02:00N 19°02' W 095°06'510.5
2018-Dec-03 01:30N 18°59' W 095°01'710.3
2018-Dec-03 00:52N 18°56' W 094°55'1110.1
2018-Dec-02 23:49N 18°50' W 094°46'310.1
2018-Dec-02 23:31N 18°48' W 094°43'  
2018-Nov-30 11:54N 19°31' W 095°08'0 0.5
2018-Nov-30 11:21N 19°31' W 095°08'  
2018-Nov-28 04:09N 19°08' W 095°42'1 8.1
2018-Nov-28 04:00N 19°07' W 095°42'4 8.0
2018-Nov-28 03:30N 19°05' W 095°46'4 8.5
2018-Nov-28 03:00N 19°02' W 095°49'510.3
2018-Nov-28 02:31N 19°02' W 095°55'4 7.9
2018-Nov-28 02:00N 19°04' W 095°58'0 0.2
2018-Nov-28 01:30N 19°04' W 095°58'0 0.0
2018-Nov-28 01:00N 19°04' W 095°58'0 0.0
2018-Nov-28 00:31N 19°04' W 095°58'0 0.0
2018-Nov-28 00:00N 19°04' W 095°58'0 0.0
2018-Nov-27 23:31N 19°04' W 095°58'0 0.0
2018-Nov-27 23:00N 19°04' W 095°58'0 0.0
2018-Nov-27 22:31N 19°04' W 095°58'0 0.0
2018-Nov-27 22:00N 19°04' W 095°58'0 0.0
2018-Nov-27 21:30N 19°04' W 095°58'0 0.0
2018-Nov-27 21:00N 19°04' W 095°58'0 0.0
2018-Nov-27 20:31N 19°04' W 095°58'0 0.0
2018-Nov-27 20:01N 19°04' W 095°58'0 0.0
2018-Nov-27 19:31N 19°04' W 095°58'0 0.0
2018-Nov-27 19:00N 19°04' W 095°58'0 0.0
2018-Nov-27 18:31N 19°04' W 095°58'0 0.0
2018-Nov-27 18:00N 19°04' W 095°58'0 0.0
2018-Nov-27 17:31N 19°04' W 095°58'0 0.0
2018-Nov-27 17:00N 19°04' W 095°58'0 0.0
2018-Nov-27 16:31N 19°04' W 095°58'0 0.0
2018-Nov-27 16:00N 19°04' W 095°58'0 0.0
2018-Nov-27 15:31N 19°04' W 095°58'0 0.0
2018-Nov-27 15:01N 19°04' W 095°58'0 0.1
2018-Nov-27 14:31N 19°04' W 095°58'0 0.0
2018-Nov-27 14:00N 19°04' W 095°58'0 0.0
2018-Nov-27 13:31N 19°04' W 095°58'0 0.0
2018-Nov-27 13:01N 19°04' W 095°58'0 0.0
2018-Nov-27 12:31N 19°04' W 095°58'0 0.0
2018-Nov-27 12:00N 19°04' W 095°58'0 0.0
2018-Nov-27 11:30N 19°04' W 095°58'0 0.0
2018-Nov-27 11:00N 19°04' W 095°58'0 0.0
2018-Nov-27 10:30N 19°04' W 095°58'0 0.0
2018-Nov-27 10:00N 19°04' W 095°58'0 0.0
2018-Nov-27 09:30N 19°04' W 095°58'0 0.0
2018-Nov-27 09:00N 19°04' W 095°58'0 0.0
2018-Nov-27 08:30N 19°04' W 095°58'0 0.0
2018-Nov-27 08:01N 19°04' W 095°58'0 0.0
2018-Nov-27 07:31N 19°04' W 095°58'0 0.0
2018-Nov-27 07:01N 19°04' W 095°58'0 0.0
2018-Nov-27 06:30N 19°04' W 095°58'0 0.0
2018-Nov-27 06:00N 19°04' W 095°58'0 0.0
2018-Nov-27 05:31N 19°04' W 095°58'0 0.0
2018-Nov-27 05:00N 19°04' W 095°58'0 0.0
2018-Nov-27 04:30N 19°04' W 095°58'0 0.0
2018-Nov-27 04:00N 19°04' W 095°58'0 0.0
2018-Nov-27 03:23N 19°04' W 095°58'0 0.0
2018-Nov-27 02:30N 19°04' W 095°58'0 0.0
2018-Nov-27 02:01N 19°04' W 095°58'0 0.0
2018-Nov-27 01:30N 19°04' W 095°58'0 0.0
2018-Nov-27 01:00N 19°04' W 095°58'0 0.0
2018-Nov-27 00:30N 19°04' W 095°58'  

Dump ship's entire track history